createdAt,value
2017-04-16T04:00:53.203Z,0
2017-04-16T04:01:18.686Z,0
2017-04-16T04:01:44.205Z,0
2017-04-16T04:02:09.689Z,0
2017-04-16T04:02:35.170Z,0
2017-04-16T04:03:00.673Z,0
2017-04-16T04:03:26.161Z,0
2017-04-16T04:03:51.657Z,0
2017-04-16T04:04:17.175Z,0
2017-04-16T04:04:42.686Z,0
2017-04-16T04:05:08.222Z,0
2017-04-16T04:05:33.710Z,0
2017-04-16T04:05:59.200Z,0
2017-04-16T04:06:24.729Z,0
2017-04-16T04:06:50.224Z,0
2017-04-16T04:07:15.730Z,0
2017-04-16T04:07:41.209Z,0
2017-04-16T04:08:06.694Z,0
2017-04-16T04:08:32.200Z,0
2017-04-16T04:08:57.710Z,0
2017-04-16T04:09:23.218Z,0
2017-04-16T04:09:48.717Z,0
2017-04-16T04:10:14.236Z,0
2017-04-16T04:10:39.704Z,0
2017-04-16T04:11:05.201Z,0
2017-04-16T04:11:30.746Z,0
2017-04-16T04:11:56.236Z,0
2017-04-16T04:12:21.749Z,0
2017-04-16T04:12:47.186Z,0
2017-04-16T04:13:12.675Z,0
2017-04-16T04:13:38.208Z,0
2017-04-16T04:14:03.701Z,0
2017-04-16T04:14:29.216Z,0
2017-04-16T04:14:54.737Z,0
2017-04-16T04:15:20.302Z,0
2017-04-16T04:15:45.779Z,0
2017-04-16T04:16:11.254Z,0
2017-04-16T04:16:36.741Z,0
2017-04-16T04:17:02.304Z,0
2017-04-16T04:17:27.826Z,0
2017-04-16T04:17:53.328Z,0
2017-04-16T04:18:18.847Z,0
2017-04-16T04:18:44.348Z,0
2017-04-16T04:19:09.870Z,0
2017-04-16T04:19:35.362Z,0
2017-04-16T04:20:00.861Z,0
2017-04-16T04:20:26.347Z,0
2017-04-16T04:20:51.846Z,0
2017-04-16T04:21:17.319Z,0
2017-04-16T04:21:42.813Z,0
2017-04-16T04:22:08.314Z,0
2017-04-16T04:22:33.794Z,0
2017-04-16T04:22:59.322Z,0
2017-04-16T04:23:24.841Z,0
2017-04-16T04:23:50.333Z,0
2017-04-16T04:24:15.875Z,0
2017-04-16T04:24:41.395Z,0
2017-04-16T04:25:06.919Z,0
2017-04-16T04:25:32.500Z,0
2017-04-16T04:25:57.988Z,0
2017-04-16T04:26:23.499Z,0
2017-04-16T04:26:48.966Z,0
2017-04-16T04:27:14.431Z,0
2017-04-16T04:27:39.921Z,0
2017-04-16T04:28:05.457Z,0
2017-04-16T04:28:30.948Z,5
2017-04-16T04:28:56.419Z,5
2017-04-16T04:29:21.957Z,5
2017-04-16T04:29:47.391Z,5
2017-04-16T04:30:12.887Z,5
2017-04-16T04:30:38.382Z,5
2017-04-16T04:31:03.877Z,5
2017-04-16T04:31:29.376Z,5
2017-04-16T04:31:54.879Z,5
2017-04-16T04:32:20.361Z,5
2017-04-16T04:32:45.890Z,5
2017-04-16T04:33:11.382Z,5
2017-04-16T04:33:36.873Z,5
2017-04-16T04:34:02.368Z,5
2017-04-16T04:34:27.891Z,5
2017-04-16T04:34:53.365Z,5
2017-04-16T04:35:18.843Z,5
2017-04-16T04:35:44.342Z,5
2017-04-16T04:36:09.821Z,5
2017-04-16T04:36:35.320Z,5
2017-04-16T04:37:00.811Z,5
2017-04-16T04:37:26.304Z,5
2017-04-16T04:37:51.801Z,5
2017-04-16T04:38:17.260Z,5
2017-04-16T04:38:42.762Z,5
2017-04-16T04:39:08.287Z,10
2017-04-16T04:39:33.781Z,10
2017-04-16T04:39:59.267Z,10
2017-04-16T04:40:24.770Z,10
2017-04-16T04:40:50.251Z,10
2017-04-16T04:41:15.740Z,10
2017-04-16T04:41:41.262Z,10
2017-04-16T04:42:06.774Z,10
2017-04-16T04:42:32.229Z,10
2017-04-16T04:42:57.757Z,10
2017-04-16T04:43:23.261Z,10
2017-04-16T04:43:48.725Z,10
2017-04-16T04:44:14.231Z,10
2017-04-16T04:44:39.717Z,10
2017-04-16T04:45:05.221Z,10
2017-04-16T04:45:30.744Z,10
2017-04-16T04:45:56.242Z,15
2017-04-16T04:46:21.758Z,15
2017-04-16T04:46:47.241Z,15
2017-04-16T04:47:12.755Z,15
2017-04-16T04:47:38.277Z,15
2017-04-16T04:48:03.778Z,15
2017-04-16T04:48:29.287Z,15
2017-04-16T04:48:54.769Z,15
2017-04-16T04:49:20.280Z,15
2017-04-16T04:49:45.772Z,15
2017-04-16T04:50:11.275Z,15
2017-04-16T04:50:36.820Z,15
2017-04-16T04:51:02.318Z,15
2017-04-16T04:51:27.814Z,20
2017-04-16T04:51:53.291Z,20
2017-04-16T04:52:18.764Z,20
2017-04-16T04:52:44.264Z,20
2017-04-16T04:53:09.774Z,20
2017-04-16T04:53:35.267Z,20
2017-04-16T04:54:00.799Z,20
2017-04-16T04:54:26.305Z,20
2017-04-16T04:54:51.856Z,25
2017-04-16T04:55:17.364Z,25
2017-04-16T04:55:42.868Z,25
2017-04-16T04:56:08.363Z,25
2017-04-16T04:56:33.896Z,25
2017-04-16T04:56:59.380Z,30
2017-04-16T04:57:24.865Z,30
2017-04-16T04:57:50.358Z,30
2017-04-16T04:58:15.853Z,30
2017-04-16T04:58:41.353Z,30
2017-04-16T04:59:06.861Z,30
2017-04-16T04:59:32.347Z,30
2017-04-16T04:59:57.835Z,30
2017-04-16T05:00:23.326Z,30
2017-04-16T05:00:48.848Z,30
2017-04-16T05:01:14.338Z,30
2017-04-16T05:01:39.843Z,30
2017-04-16T05:02:05.334Z,30
2017-04-16T05:02:30.824Z,30
2017-04-16T05:02:56.299Z,30
2017-04-16T05:03:21.796Z,30
2017-04-16T05:03:47.302Z,30
2017-04-16T05:04:12.798Z,35
2017-04-16T05:04:38.276Z,35
2017-04-16T05:05:03.792Z,35
2017-04-16T05:05:29.286Z,35
2017-04-16T05:05:54.770Z,35
2017-04-16T05:06:20.235Z,35
2017-04-16T05:06:45.713Z,35
2017-04-16T05:07:11.191Z,35
2017-04-16T05:07:36.667Z,35
2017-04-16T05:08:02.136Z,35
2017-04-16T05:08:27.611Z,40
2017-04-16T05:08:53.094Z,40
2017-04-16T05:09:18.598Z,40
2017-04-16T05:09:44.085Z,40
2017-04-16T05:10:09.570Z,40
2017-04-16T05:10:35.054Z,40
2017-04-16T05:11:00.550Z,40
2017-04-16T05:11:26.059Z,40
2017-04-16T05:11:51.550Z,40
2017-04-16T05:12:17.058Z,40
2017-04-16T05:12:42.557Z,40
2017-04-16T05:13:08.087Z,40
2017-04-16T05:13:33.586Z,40
2017-04-16T05:13:59.069Z,40
2017-04-16T05:14:24.557Z,45
2017-04-16T05:14:50.035Z,45
2017-04-16T05:15:15.531Z,45
2017-04-16T05:15:41.032Z,45
2017-04-16T05:16:06.511Z,45
2017-04-16T05:16:32.015Z,45
2017-04-16T05:16:57.527Z,45
2017-04-16T05:17:23.031Z,45
2017-04-16T05:17:48.518Z,45
2017-04-16T05:18:14.027Z,45
2017-04-16T05:18:39.543Z,45
2017-04-16T05:19:04.985Z,45
2017-04-16T05:19:30.460Z,45
2017-04-16T05:19:55.953Z,45
2017-04-16T05:20:21.470Z,45
2017-04-16T05:20:47.006Z,45
2017-04-16T05:21:12.496Z,45
2017-04-16T05:21:38.013Z,45
2017-04-16T05:22:03.491Z,45
2017-04-16T05:22:28.983Z,45
2017-04-16T05:22:54.488Z,45
2017-04-16T05:23:19.971Z,45
2017-04-16T05:23:45.458Z,50
2017-04-16T05:24:10.950Z,50
2017-04-16T05:24:36.415Z,50
2017-04-16T05:25:01.893Z,50
2017-04-16T05:25:27.386Z,50
2017-04-16T05:25:52.884Z,50
2017-04-16T05:26:18.375Z,50
2017-04-16T05:26:43.874Z,50
2017-04-16T05:27:09.380Z,50
2017-04-16T05:27:34.876Z,50
2017-04-16T05:28:00.353Z,55
2017-04-16T05:28:25.867Z,55
2017-04-16T05:28:51.372Z,55
2017-04-16T05:29:16.902Z,55
2017-04-16T05:29:42.389Z,55
2017-04-16T05:30:07.884Z,55
2017-04-16T05:30:33.360Z,55
2017-04-16T05:30:58.850Z,55
2017-04-16T05:31:24.343Z,55
2017-04-16T05:31:49.831Z,55
2017-04-16T05:32:15.326Z,55
2017-04-16T05:32:40.813Z,55
2017-04-16T05:33:06.296Z,55
2017-04-16T05:33:31.783Z,55
2017-04-16T05:33:57.277Z,55
2017-04-16T05:34:22.759Z,55
2017-04-16T05:34:48.216Z,55
2017-04-16T05:35:13.733Z,55
2017-04-16T05:35:39.242Z,55
2017-04-16T05:36:04.711Z,55
2017-04-16T05:36:30.216Z,55
2017-04-16T05:36:55.692Z,55
2017-04-16T05:37:21.189Z,55
2017-04-16T05:37:46.684Z,55
2017-04-16T05:38:12.184Z,60
2017-04-16T05:38:37.678Z,60
2017-04-16T05:39:03.219Z,60
2017-04-16T05:39:28.729Z,60
2017-04-16T05:39:54.236Z,60
2017-04-16T05:40:19.725Z,60
2017-04-16T05:40:45.218Z,60
2017-04-16T05:41:10.719Z,60
2017-04-16T05:41:36.213Z,60
2017-04-16T05:42:01.745Z,60
2017-04-16T05:42:27.215Z,60
2017-04-16T05:42:52.706Z,60
2017-04-16T05:43:18.192Z,60
2017-04-16T05:43:43.701Z,60
2017-04-16T05:44:09.189Z,65
2017-04-16T05:44:34.693Z,65
2017-04-16T05:45:00.183Z,65
2017-04-16T05:45:25.762Z,65
2017-04-16T05:45:51.266Z,65
2017-04-16T05:46:16.728Z,70
2017-04-16T05:46:42.207Z,70
2017-04-16T05:47:07.716Z,70
2017-04-16T05:47:33.211Z,70
2017-04-16T05:47:58.708Z,70
2017-04-16T05:48:24.217Z,70
2017-04-16T05:48:49.718Z,70
2017-04-16T05:49:15.192Z,70
2017-04-16T05:49:40.705Z,70
2017-04-16T05:50:06.233Z,70
2017-04-16T05:50:31.745Z,70
2017-04-16T05:50:57.237Z,70
2017-04-16T05:51:22.698Z,70
2017-04-16T05:51:48.215Z,70
2017-04-16T05:52:13.686Z,70
2017-04-16T05:52:39.240Z,70
2017-04-16T05:53:04.725Z,70
2017-04-16T05:53:30.214Z,70
2017-04-16T05:53:55.705Z,70
2017-04-16T05:54:21.193Z,75
2017-04-16T05:54:46.746Z,75
2017-04-16T05:55:12.239Z,75
2017-04-16T05:55:37.754Z,75
2017-04-16T05:56:03.279Z,75
2017-04-16T05:56:28.787Z,75
2017-04-16T05:56:54.298Z,75
2017-04-16T05:57:19.818Z,75
2017-04-16T05:57:45.333Z,75
2017-04-16T05:58:10.833Z,75
2017-04-16T05:58:36.313Z,75
2017-04-16T05:59:01.815Z,75
2017-04-16T05:59:27.302Z,75
2017-04-16T05:59:52.811Z,75
2017-04-16T06:00:18.332Z,75
2017-04-16T06:00:43.815Z,75
2017-04-16T06:01:09.302Z,75
2017-04-16T06:01:34.834Z,75
2017-04-16T06:02:00.317Z,75
2017-04-16T06:02:25.818Z,75
2017-04-16T06:02:51.303Z,80
2017-04-16T06:03:16.851Z,80
2017-04-16T06:03:42.326Z,80
2017-04-16T06:04:07.839Z,80
2017-04-16T06:04:33.345Z,80
2017-04-16T06:04:58.812Z,80
2017-04-16T06:05:24.317Z,80
2017-04-16T06:05:49.808Z,80
2017-04-16T06:06:15.308Z,80
2017-04-16T06:06:40.808Z,80
2017-04-16T06:07:06.307Z,80
2017-04-16T06:07:31.812Z,80
2017-04-16T06:07:57.321Z,80
2017-04-16T06:08:22.834Z,80
2017-04-16T06:08:48.334Z,80
2017-04-16T06:09:13.837Z,80
2017-04-16T06:09:39.340Z,80
2017-04-16T06:10:04.823Z,80
2017-04-16T06:10:30.316Z,80
2017-04-16T06:10:55.823Z,80
2017-04-16T06:11:21.297Z,80
2017-04-16T06:11:46.787Z,80
2017-04-16T06:12:12.295Z,80
2017-04-16T06:12:37.798Z,80
2017-04-16T06:13:03.321Z,80
2017-04-16T06:13:28.830Z,80
2017-04-16T06:13:54.324Z,80
2017-04-16T06:14:19.810Z,80
2017-04-16T06:14:45.306Z,80
2017-04-16T06:15:10.827Z,80
2017-04-16T06:15:36.324Z,80
2017-04-16T06:16:01.823Z,80
2017-04-16T06:16:27.342Z,80
2017-04-16T06:16:52.872Z,80
2017-04-16T06:17:18.354Z,80
2017-04-16T06:17:43.868Z,80
2017-04-16T06:18:09.361Z,85
2017-04-16T06:18:34.873Z,85
2017-04-16T06:19:00.358Z,85
2017-04-16T06:19:25.857Z,85
2017-04-16T06:19:51.344Z,85
2017-04-16T06:20:16.849Z,85
2017-04-16T06:20:42.358Z,90
2017-04-16T06:21:07.885Z,90
2017-04-16T06:21:33.379Z,90
2017-04-16T06:21:58.862Z,90
2017-04-16T06:22:24.357Z,90
2017-04-16T06:22:49.852Z,90
2017-04-16T06:23:15.348Z,90
2017-04-16T06:23:40.844Z,90
2017-04-16T06:24:06.353Z,95
2017-04-16T06:24:31.888Z,95
2017-04-16T06:24:57.429Z,95
2017-04-16T06:25:22.932Z,95
2017-04-16T06:25:48.423Z,95
2017-04-16T06:26:13.923Z,95
2017-04-16T06:26:39.426Z,100
2017-04-16T06:27:04.921Z,100
2017-04-16T06:27:30.423Z,100
2017-04-16T06:27:55.916Z,100
2017-04-16T06:28:21.452Z,100
2017-04-16T06:28:46.953Z,100
2017-04-16T06:29:12.449Z,100
2017-04-16T06:29:37.954Z,100
2017-04-16T06:30:03.439Z,100
2017-04-16T06:30:28.932Z,100
2017-04-16T06:30:54.437Z,100
2017-04-16T06:31:19.943Z,100
2017-04-16T06:31:45.409Z,100
2017-04-16T06:32:10.890Z,100
2017-04-16T06:32:36.386Z,100
2017-04-16T06:33:01.885Z,100
2017-04-16T06:33:27.385Z,100
2017-04-16T06:33:52.882Z,100
2017-04-16T06:34:18.374Z,100
2017-04-16T06:34:43.858Z,100
2017-04-16T06:35:09.325Z,100
2017-04-16T06:35:34.834Z,100
2017-04-16T06:36:00.297Z,100
2017-04-16T06:36:25.774Z,100
2017-04-16T06:36:51.272Z,100
2017-04-16T06:37:16.761Z,100
2017-04-16T06:37:42.257Z,100
2017-04-16T06:38:07.759Z,100
2017-04-16T06:38:33.248Z,100
2017-04-16T06:38:58.737Z,100
2017-04-16T06:39:24.242Z,100
2017-04-16T06:39:49.752Z,100
2017-04-16T06:40:15.269Z,100
2017-04-16T06:40:40.750Z,100
2017-04-16T06:41:06.277Z,100
2017-04-16T06:41:31.783Z,100
2017-04-16T06:41:57.273Z,100
2017-04-16T06:42:22.775Z,100
2017-04-16T06:42:48.318Z,100
2017-04-16T06:43:13.773Z,100
2017-04-16T06:43:39.282Z,100
2017-04-16T06:44:04.755Z,100
2017-04-16T06:44:30.285Z,100
2017-04-16T06:44:55.773Z,100
2017-04-16T06:45:21.265Z,100
2017-04-16T06:45:46.763Z,100
2017-04-16T06:46:12.308Z,105
2017-04-16T06:46:37.835Z,105
2017-04-16T06:47:03.358Z,105
2017-04-16T06:47:28.896Z,105
2017-04-16T06:47:54.458Z,105
2017-04-16T06:48:19.969Z,105
2017-04-16T06:48:45.487Z,105
2017-04-16T06:49:10.983Z,105
2017-04-16T06:49:36.512Z,105
2017-04-16T06:50:02.005Z,105
2017-04-16T06:50:27.545Z,105
2017-04-16T06:50:52.991Z,105
2017-04-16T06:51:18.496Z,105
2017-04-16T06:51:44.026Z,105
2017-04-16T06:52:09.550Z,105
2017-04-16T06:52:35.022Z,110
2017-04-16T06:53:00.525Z,105
2017-04-16T06:53:26.011Z,110
2017-04-16T06:53:51.586Z,110
2017-04-16T06:54:17.093Z,110
2017-04-16T06:54:42.585Z,110
2017-04-16T06:55:08.075Z,110
2017-04-16T06:55:33.613Z,110
2017-04-16T06:55:59.102Z,110
2017-04-16T06:56:24.601Z,115
2017-04-16T06:56:50.092Z,115
2017-04-16T06:57:15.557Z,115
2017-04-16T06:57:41.067Z,115
2017-04-16T06:58:06.579Z,115
2017-04-16T06:58:32.062Z,115
2017-04-16T06:58:57.536Z,115
2017-04-16T06:59:23.080Z,115
2017-04-16T06:59:48.582Z,115
2017-04-16T07:00:14.089Z,115
2017-04-16T07:00:39.540Z,115
2017-04-16T07:01:05.035Z,115
2017-04-16T07:01:30.519Z,115
2017-04-16T07:01:55.993Z,115
2017-04-16T07:02:21.479Z,115
2017-04-16T07:02:46.982Z,115
2017-04-16T07:03:12.494Z,115
2017-04-16T07:03:38.022Z,115
2017-04-16T07:04:03.467Z,115
2017-04-16T07:04:28.953Z,115
2017-04-16T07:04:54.441Z,115
2017-04-16T07:05:19.913Z,115
2017-04-16T07:05:45.423Z,115
2017-04-16T07:06:10.900Z,115
2017-04-16T07:06:36.366Z,120
2017-04-16T07:07:01.871Z,120
2017-04-16T07:07:27.345Z,120
2017-04-16T07:07:52.840Z,115
2017-04-16T07:08:18.348Z,115
2017-04-16T07:08:43.834Z,120
2017-04-16T07:09:09.359Z,125
2017-04-16T07:09:34.823Z,125
2017-04-16T07:10:00.323Z,125
2017-04-16T07:10:25.816Z,130
2017-04-16T07:10:51.319Z,130
2017-04-16T07:11:16.816Z,140
2017-04-16T07:11:42.404Z,145
2017-04-16T07:12:07.890Z,145
2017-04-16T07:12:33.438Z,150
2017-04-16T07:12:59.061Z,150
2017-04-16T07:13:24.571Z,150
2017-04-16T07:13:50.076Z,140
2017-04-16T07:14:15.642Z,140
2017-04-16T07:14:41.183Z,140
2017-04-16T07:15:06.803Z,140
2017-04-16T07:15:32.387Z,145
2017-04-16T07:15:57.938Z,135
2017-04-16T07:16:23.478Z,135
2017-04-16T07:16:49.080Z,140
2017-04-16T07:17:14.560Z,140
2017-04-16T07:17:40.127Z,135
2017-04-16T07:18:05.698Z,135
2017-04-16T07:18:31.216Z,135
2017-04-16T07:18:56.728Z,135
2017-04-16T07:19:22.266Z,135
2017-04-16T07:19:47.782Z,140
2017-04-16T07:20:13.308Z,140
2017-04-16T07:20:38.846Z,140
2017-04-16T07:21:04.334Z,145
2017-04-16T07:21:29.971Z,145
2017-04-16T07:21:55.512Z,145
2017-04-16T07:22:20.996Z,145
2017-04-16T07:22:46.531Z,150
2017-04-16T07:23:12.910Z,150
2017-04-16T07:23:38.397Z,155
2017-04-16T07:24:03.888Z,160
2017-04-16T07:24:29.383Z,160
2017-04-16T07:24:54.883Z,160
2017-04-16T07:25:20.378Z,165
2017-04-16T07:25:45.867Z,165
2017-04-16T07:26:11.358Z,165
2017-04-16T07:26:36.853Z,165
2017-04-16T07:27:02.371Z,165
2017-04-16T07:27:27.829Z,165
2017-04-16T07:27:53.320Z,170
2017-04-16T07:28:18.787Z,170
2017-04-16T07:28:44.306Z,175
2017-04-16T07:29:09.820Z,170
2017-04-16T07:29:35.265Z,175
2017-04-16T07:30:00.792Z,175
2017-04-16T07:30:26.276Z,175
2017-04-16T07:30:51.756Z,180
2017-04-16T07:31:17.275Z,180
2017-04-16T07:31:42.770Z,185
2017-04-16T07:32:08.353Z,185
2017-04-16T07:32:33.873Z,185
2017-04-16T07:32:59.375Z,185
2017-04-16T07:33:24.919Z,185
2017-04-16T07:33:50.392Z,190
2017-04-16T07:34:15.887Z,190
2017-04-16T07:34:41.422Z,190
2017-04-16T07:35:06.886Z,190
2017-04-16T07:35:32.402Z,185
2017-04-16T07:35:57.909Z,190
2017-04-16T07:36:23.384Z,190
2017-04-16T07:36:48.909Z,190
2017-04-16T07:37:14.444Z,190
2017-04-16T07:37:39.927Z,195
2017-04-16T07:38:05.408Z,200
2017-04-16T07:38:30.879Z,190
2017-04-16T07:38:56.416Z,195
2017-04-16T07:39:21.907Z,200
2017-04-16T07:39:47.416Z,200
2017-04-16T07:40:12.904Z,200
2017-04-16T07:40:38.370Z,205
2017-04-16T07:41:03.878Z,205
2017-04-16T07:41:29.390Z,205
2017-04-16T07:41:54.889Z,205
2017-04-16T07:42:20.378Z,205
2017-04-16T07:42:45.919Z,200
2017-04-16T07:43:11.395Z,200
2017-04-16T07:43:36.900Z,200
2017-04-16T07:44:02.393Z,200
2017-04-16T07:44:27.964Z,200
2017-04-16T07:44:53.493Z,200
2017-04-16T07:45:18.975Z,190
2017-04-16T07:45:44.416Z,180
2017-04-16T07:46:09.897Z,190
2017-04-16T07:46:35.402Z,205
2017-04-16T07:47:00.897Z,205
2017-04-16T07:47:26.403Z,205
2017-04-16T07:47:51.909Z,205
2017-04-16T07:48:17.415Z,205
2017-04-16T07:48:42.911Z,200
2017-04-16T07:49:08.414Z,195
2017-04-16T07:49:33.905Z,180
2017-04-16T07:49:59.396Z,180
2017-04-16T07:50:24.899Z,190
2017-04-16T07:50:50.417Z,190
2017-04-16T07:51:15.922Z,190
2017-04-16T07:51:41.427Z,190
2017-04-16T07:52:06.900Z,190
2017-04-16T07:52:32.429Z,190
2017-04-16T07:52:57.970Z,190
2017-04-16T07:53:23.446Z,190
2017-04-16T07:53:48.985Z,185
2017-04-16T07:54:14.489Z,190
2017-04-16T07:54:39.981Z,195
2017-04-16T07:55:05.475Z,195
2017-04-16T07:55:30.979Z,190
2017-04-16T07:55:56.473Z,190
2017-04-16T07:56:21.999Z,190
2017-04-16T07:56:47.534Z,180
2017-04-16T07:57:13.010Z,175
2017-04-16T07:57:38.489Z,180
2017-04-16T07:58:03.966Z,190
2017-04-16T07:58:29.457Z,185
2017-04-16T07:58:54.958Z,190
2017-04-16T07:59:20.466Z,190
2017-04-16T07:59:45.949Z,185
2017-04-16T08:00:11.440Z,185
2017-04-16T08:00:37.001Z,185
2017-04-16T08:01:02.577Z,180
2017-04-16T08:01:28.059Z,185
2017-04-16T08:01:53.562Z,180
2017-04-16T08:02:19.053Z,185
2017-04-16T08:02:44.555Z,190
2017-04-16T08:03:10.067Z,190
2017-04-16T08:03:35.582Z,180
2017-04-16T08:04:01.107Z,185
2017-04-16T08:04:26.629Z,190
2017-04-16T08:04:52.142Z,200
2017-04-16T08:05:17.611Z,210
2017-04-16T08:05:43.113Z,220
2017-04-16T08:06:08.632Z,195
2017-04-16T08:06:34.140Z,195
2017-04-16T08:06:59.681Z,195
2017-04-16T08:07:25.200Z,195
2017-04-16T08:07:50.708Z,185
2017-04-16T08:08:16.191Z,190
2017-04-16T08:08:41.677Z,185
2017-04-16T08:09:07.180Z,185
2017-04-16T08:09:32.663Z,190
2017-04-16T08:09:58.165Z,210
2017-04-16T08:10:23.661Z,220
2017-04-16T08:10:49.182Z,215
2017-04-16T08:11:14.681Z,210
2017-04-16T08:11:40.183Z,215
2017-04-16T08:12:05.714Z,215
2017-04-16T08:12:31.250Z,215
2017-04-16T08:12:56.750Z,205
2017-04-16T08:13:22.236Z,205
2017-04-16T08:13:47.753Z,200
2017-04-16T08:14:13.252Z,210
2017-04-16T08:14:38.742Z,215
2017-04-16T08:15:04.253Z,205
2017-04-16T08:15:29.739Z,195
2017-04-16T08:15:55.207Z,195
2017-04-16T08:16:20.741Z,195
2017-04-16T08:16:46.322Z,205
2017-04-16T08:17:11.826Z,200
2017-04-16T08:17:37.322Z,200
2017-04-16T08:18:02.858Z,205
2017-04-16T08:18:28.366Z,220
2017-04-16T08:18:53.860Z,210
2017-04-16T08:19:19.354Z,190
2017-04-16T08:19:44.885Z,185
2017-04-16T08:20:10.377Z,190
2017-04-16T08:20:35.910Z,190
2017-04-16T08:21:01.399Z,185
2017-04-16T08:21:26.911Z,180
2017-04-16T08:21:52.410Z,180
2017-04-16T08:22:17.909Z,180
2017-04-16T08:22:43.397Z,175
2017-04-16T08:23:08.864Z,175
2017-04-16T08:23:34.362Z,175
2017-04-16T08:23:59.893Z,175
2017-04-16T08:24:25.417Z,180
2017-04-16T08:24:50.910Z,180
2017-04-16T08:25:16.418Z,180
2017-04-16T08:25:41.914Z,175
2017-04-16T08:26:07.445Z,180
2017-04-16T08:26:32.937Z,185
2017-04-16T08:26:58.435Z,190
2017-04-16T08:27:23.909Z,195
2017-04-16T08:27:49.425Z,205
2017-04-16T08:28:14.900Z,215
2017-04-16T08:28:40.405Z,220
2017-04-16T08:29:05.910Z,230
2017-04-16T08:29:31.462Z,235
2017-04-16T08:29:56.999Z,245
2017-04-16T08:30:22.496Z,250
2017-04-16T08:30:48.010Z,245
2017-04-16T08:31:13.516Z,220
2017-04-16T08:31:39.040Z,210
2017-04-16T08:32:04.535Z,210
2017-04-16T08:32:30.004Z,205
2017-04-16T08:32:55.460Z,205
2017-04-16T08:33:20.959Z,210
2017-04-16T08:33:46.391Z,225
2017-04-16T08:34:11.872Z,230
2017-04-16T08:34:37.329Z,210
2017-04-16T08:35:02.805Z,200
2017-04-16T08:35:28.293Z,200
2017-04-16T08:35:53.756Z,190
2017-04-16T08:36:19.502Z,190
2017-04-16T08:36:45.345Z,190
2017-04-16T08:37:11.137Z,200
2017-04-16T08:37:36.622Z,205
2017-04-16T08:38:02.063Z,195
2017-04-16T08:38:27.566Z,185
2017-04-16T08:38:53.069Z,190
2017-04-16T08:39:18.543Z,190
2017-04-16T08:39:44.068Z,195
2017-04-16T08:40:09.834Z,205
2017-04-16T08:40:35.190Z,210
2017-04-16T08:41:00.988Z,225
2017-04-16T08:41:26.665Z,230
2017-04-16T08:41:52.456Z,230
2017-04-16T08:42:17.998Z,215
2017-04-16T08:42:43.480Z,195
2017-04-16T08:43:08.957Z,175
2017-04-16T08:43:34.451Z,170
2017-04-16T08:43:59.963Z,170
2017-04-16T08:44:25.489Z,175
2017-04-16T08:44:50.988Z,170
2017-04-16T08:45:16.533Z,175
2017-04-16T08:45:42.150Z,190
2017-04-16T08:46:07.701Z,205
2017-04-16T08:46:33.182Z,205
2017-04-16T08:46:58.711Z,210
2017-04-16T08:47:24.221Z,225
2017-04-16T08:47:49.774Z,220
2017-04-16T08:48:15.242Z,225
2017-04-16T08:48:40.787Z,225
2017-04-16T08:49:06.322Z,215
2017-04-16T08:49:31.874Z,195
2017-04-16T08:49:57.381Z,190
2017-04-16T08:50:22.880Z,195
2017-04-16T08:50:48.379Z,200
2017-04-16T08:51:13.874Z,195
2017-04-16T08:51:39.346Z,195
2017-04-16T08:52:04.843Z,200
2017-04-16T08:52:30.372Z,195
2017-04-16T08:52:55.928Z,200
2017-04-16T08:53:21.569Z,200
2017-04-16T08:53:47.077Z,200
2017-04-16T08:54:12.580Z,205
2017-04-16T08:54:38.082Z,210
2017-04-16T08:55:03.578Z,220
2017-04-16T08:55:29.092Z,220
2017-04-16T08:55:54.571Z,225
2017-04-16T08:56:20.061Z,230
2017-04-16T08:56:45.547Z,230
2017-04-16T08:57:11.082Z,235
2017-04-16T08:57:36.608Z,240
2017-04-16T08:58:02.132Z,255
2017-04-16T08:58:27.622Z,255
2017-04-16T08:58:53.139Z,265
2017-04-16T08:59:18.623Z,265
2017-04-16T08:59:44.136Z,280
2017-04-16T09:00:09.639Z,285
2017-04-16T09:00:35.117Z,290
2017-04-16T09:01:00.610Z,305
2017-04-16T09:01:26.123Z,310
2017-04-16T09:01:51.640Z,300
2017-04-16T09:02:17.146Z,290
2017-04-16T09:02:42.658Z,265
2017-04-16T09:03:08.167Z,260
2017-04-16T09:03:33.668Z,260
2017-04-16T09:03:59.153Z,260
2017-04-16T09:04:24.652Z,255
2017-04-16T09:04:50.181Z,255
2017-04-16T09:05:15.663Z,250
2017-04-16T09:05:41.170Z,255
2017-04-16T09:06:06.660Z,250
2017-04-16T09:06:32.143Z,255
2017-04-16T09:06:57.640Z,255
2017-04-16T09:07:23.135Z,250
2017-04-16T09:07:48.630Z,250
2017-04-16T09:08:14.103Z,255
2017-04-16T09:08:39.613Z,255
2017-04-16T09:09:05.152Z,260
2017-04-16T09:09:30.654Z,255
2017-04-16T09:09:56.202Z,255
2017-04-16T09:10:21.736Z,250
2017-04-16T09:10:47.255Z,250
2017-04-16T09:11:12.729Z,255
2017-04-16T09:11:38.236Z,245
2017-04-16T09:12:03.738Z,245
2017-04-16T09:12:29.247Z,245
2017-04-16T09:12:54.714Z,250
2017-04-16T09:13:20.216Z,255
2017-04-16T09:13:45.711Z,260
2017-04-16T09:14:11.209Z,260
2017-04-16T09:14:36.711Z,260
2017-04-16T09:15:02.205Z,255
2017-04-16T09:15:27.696Z,250
2017-04-16T09:15:53.210Z,240
2017-04-16T09:16:18.689Z,235
2017-04-16T09:16:44.351Z,235
2017-04-16T09:17:09.810Z,240
2017-04-16T09:17:35.327Z,240
2017-04-16T09:18:00.866Z,245
2017-04-16T09:18:26.359Z,245
2017-04-16T09:18:51.864Z,250
2017-04-16T09:19:17.352Z,250
2017-04-16T09:19:42.812Z,250
2017-04-16T09:20:08.296Z,255
2017-04-16T09:20:33.765Z,260
2017-04-16T09:20:59.261Z,265
2017-04-16T09:21:24.691Z,270
2017-04-16T09:21:50.165Z,265
2017-04-16T09:22:15.646Z,265
2017-04-16T09:22:41.093Z,260
2017-04-16T09:23:06.583Z,255
2017-04-16T09:23:32.074Z,255
2017-04-16T09:23:57.564Z,255
2017-04-16T09:24:23.553Z,255
2017-04-16T09:24:49.020Z,255
2017-04-16T09:25:15.259Z,255
2017-04-16T09:25:40.811Z,260
2017-04-16T09:26:06.278Z,260
2017-04-16T09:26:32.163Z,255
2017-04-16T09:26:57.612Z,250
2017-04-16T09:27:23.134Z,250
2017-04-16T09:27:48.661Z,255
2017-04-16T09:28:14.141Z,255
2017-04-16T09:28:39.682Z,260
2017-04-16T09:29:05.167Z,265
2017-04-16T09:29:30.739Z,280
2017-04-16T09:29:56.239Z,285
2017-04-16T09:30:22.300Z,275
2017-04-16T09:30:47.818Z,260
2017-04-16T09:31:13.309Z,250
2017-04-16T09:31:38.802Z,240
2017-04-16T09:32:04.333Z,235
2017-04-16T09:32:29.818Z,235
2017-04-16T09:32:55.426Z,235
2017-04-16T09:33:20.959Z,240
2017-04-16T09:33:46.456Z,240
2017-04-16T09:34:11.979Z,245
2017-04-16T09:34:37.457Z,245
2017-04-16T09:35:02.959Z,240
2017-04-16T09:35:28.440Z,230
2017-04-16T09:35:53.996Z,225
2017-04-16T09:36:19.557Z,230
2017-04-16T09:36:45.035Z,240
2017-04-16T09:37:10.582Z,240
2017-04-16T09:37:36.124Z,230
2017-04-16T09:38:01.621Z,230
2017-04-16T09:38:27.138Z,225
2017-04-16T09:38:52.754Z,225
2017-04-16T09:39:18.307Z,235
2017-04-16T09:39:43.996Z,240
2017-04-16T09:40:09.498Z,250
2017-04-16T09:40:35.055Z,260
2017-04-16T09:41:00.583Z,290
2017-04-16T09:41:26.154Z,315
2017-04-16T09:41:51.825Z,335
2017-04-16T09:42:17.304Z,345
2017-04-16T09:42:42.805Z,340
2017-04-16T09:43:08.298Z,320
2017-04-16T09:43:33.838Z,300
2017-04-16T09:43:59.333Z,285
2017-04-16T09:44:24.820Z,275
2017-04-16T09:44:50.353Z,270
2017-04-16T09:45:15.879Z,265
2017-04-16T09:45:41.388Z,260
2017-04-16T09:46:06.901Z,250
2017-04-16T09:46:32.413Z,245
2017-04-16T09:46:57.957Z,240
2017-04-16T09:47:23.471Z,230
2017-04-16T09:47:48.965Z,225
2017-04-16T09:48:14.450Z,205
2017-04-16T09:48:39.978Z,195
2017-04-16T09:49:05.462Z,190
2017-04-16T09:49:30.951Z,185
2017-04-16T09:49:56.425Z,190
2017-04-16T09:50:21.961Z,200
2017-04-16T09:50:47.455Z,200
2017-04-16T09:51:12.985Z,200
2017-04-16T09:51:38.532Z,195
2017-04-16T09:52:04.044Z,205
2017-04-16T09:52:29.557Z,220
2017-04-16T09:52:55.050Z,235
2017-04-16T09:53:20.588Z,250
2017-04-16T09:53:46.118Z,250
2017-04-16T09:54:11.632Z,235
2017-04-16T09:54:37.118Z,250
2017-04-16T09:55:02.608Z,260
2017-04-16T09:55:28.107Z,255
2017-04-16T09:55:53.624Z,260
2017-04-16T09:56:19.202Z,260
2017-04-16T09:56:44.707Z,250
2017-04-16T09:57:10.206Z,245
2017-04-16T09:57:35.776Z,255
2017-04-16T09:58:01.308Z,265